createdAt,value
2022-10-23T00:00:27.978Z,100.00
2022-10-23T00:02:38.551Z,100.00
2022-10-23T00:04:47.116Z,100.00
2022-10-23T00:06:55.219Z,100.00
2022-10-23T00:09:03.458Z,100.00
2022-10-23T00:11:13.855Z,100.00
2022-10-23T00:13:21.881Z,100.00
2022-10-23T00:15:29.846Z,100.00
2022-10-23T00:17:40.503Z,100.00
2022-10-23T00:19:48.661Z,100.00
2022-10-23T00:21:56.622Z,100.00
2022-10-23T00:24:05.252Z,100.00
2022-10-23T00:26:15.949Z,100.00
2022-10-23T00:28:24.104Z,100.00
2022-10-23T00:30:31.936Z,100.00
2022-10-23T00:32:43.486Z,100.00
2022-10-23T00:34:51.720Z,100.00
2022-10-23T00:36:59.797Z,100.00
2022-10-23T00:39:07.957Z,100.00
2022-10-23T00:41:20.841Z,100.00
2022-10-23T00:43:31.281Z,100.00
2022-10-23T00:45:39.437Z,100.00
2022-10-23T00:47:51.805Z,100.00
2022-10-23T00:50:01.758Z,100.00
2022-10-23T00:52:12.274Z,100.00
2022-10-23T00:54:24.330Z,100.00
2022-10-23T00:56:34.166Z,100.00
2022-10-23T00:58:41.984Z,100.00
2022-10-23T01:00:54.881Z,100.00
2022-10-23T01:03:05.443Z,100.00
2022-10-23T01:05:13.955Z,100.00
2022-10-23T01:07:25.722Z,100.00
2022-10-23T01:09:40.998Z,100.00
2022-10-23T01:11:55.958Z,100.00
2022-10-23T01:14:13.651Z,100.00
2022-10-23T01:16:26.827Z,100.00
2022-10-23T01:18:43.722Z,100.00
2022-10-23T01:20:58.345Z,100.00
2022-10-23T01:23:20.994Z,100.00
2022-10-23T01:25:39.567Z,100.00
2022-10-23T01:27:56.060Z,100.00
2022-10-23T01:30:08.986Z,100.00
2022-10-23T01:32:30.986Z,100.00
2022-10-23T01:34:47.588Z,100.00
2022-10-23T01:36:57.356Z,100.00
2022-10-23T01:39:10.892Z,100.00
2022-10-23T01:41:24.111Z,100.00
2022-10-23T01:43:42.032Z,100.00
2022-10-23T01:45:57.757Z,100.00
2022-10-23T01:48:09.994Z,100.00
2022-10-23T01:50:20.824Z,100.00
2022-10-23T01:52:31.156Z,100.00
2022-10-23T01:54:44.172Z,100.00
2022-10-23T01:56:54.537Z,100.00
2022-10-23T01:59:16.412Z,100.00
2022-10-23T02:01:29.144Z,100.00
2022-10-23T02:03:40.448Z,100.00
2022-10-23T02:05:48.976Z,100.00
2022-10-23T02:07:57.362Z,100.00
2022-10-23T02:10:06.031Z,100.00
2022-10-23T02:12:21.649Z,100.00
2022-10-23T02:14:42.906Z,100.00
2022-10-23T02:16:54.530Z,100.00
2022-10-23T02:19:13.851Z,100.00
2022-10-23T02:21:34.267Z,100.00
2022-10-23T02:23:53.837Z,100.00
2022-10-23T02:26:10.507Z,100.00
2022-10-23T02:28:23.042Z,100.00
2022-10-23T02:30:40.784Z,100.00
2022-10-23T02:32:53.941Z,100.00
2022-10-23T02:35:02.952Z,100.00
2022-10-23T02:37:11.719Z,100.00
2022-10-23T02:39:19.749Z,100.00
2022-10-23T02:41:50.038Z,100.00
2022-10-23T02:44:10.868Z,100.00
2022-10-23T02:46:28.234Z,100.00
2022-10-23T02:48:43.598Z,100.00
2022-10-23T02:51:00.592Z,100.00
2022-10-23T02:53:17.385Z,100.00
2022-10-23T02:55:34.332Z,100.00
2022-10-23T02:57:47.923Z,100.00
2022-10-23T03:00:04.026Z,100.00
2022-10-23T03:02:25.721Z,100.00
2022-10-23T03:04:35.596Z,100.00
2022-10-23T03:06:44.300Z,100.00
2022-10-23T03:09:01.530Z,100.00
2022-10-23T03:11:09.838Z,100.00
2022-10-23T03:13:17.677Z,100.00
2022-10-23T03:15:25.558Z,100.00
2022-10-23T03:17:36.931Z,100.00
2022-10-23T03:19:44.779Z,100.00
2022-10-23T03:21:53.065Z,100.00
2022-10-23T03:24:02.414Z,100.00
2022-10-23T03:26:16.393Z,100.00
2022-10-23T03:28:24.664Z,100.00
2022-10-23T03:30:32.411Z,100.00
2022-10-23T03:32:43.360Z,100.00
2022-10-23T03:34:51.306Z,100.00
2022-10-23T03:36:59.474Z,100.00
2022-10-23T03:39:07.585Z,100.00
2022-10-23T03:41:15.945Z,100.00
2022-10-23T03:43:23.967Z,100.00
2022-10-23T03:45:32.698Z,100.00
2022-10-23T03:47:43.881Z,100.00
2022-10-23T03:49:51.896Z,100.00
2022-10-23T03:52:00.046Z,100.00
2022-10-23T03:54:08.971Z,100.00
2022-10-23T03:56:18.837Z,100.00
2022-10-23T03:58:26.863Z,100.00
2022-10-23T04:00:35.092Z,100.00
2022-10-23T04:02:46.756Z,100.00
2022-10-23T04:04:55.810Z,100.00
2022-10-23T04:07:03.650Z,100.00
2022-10-23T04:11:39.883Z,100.00
2022-10-23T04:13:48.718Z,100.00
2022-10-23T04:15:56.571Z,100.00
2022-10-23T04:18:07.897Z,100.00
2022-10-23T04:20:16.431Z,100.00
2022-10-23T04:22:26.138Z,100.00
2022-10-23T04:24:36.944Z,100.00
2022-10-23T04:26:44.972Z,100.00
2022-10-23T04:28:53.431Z,100.00
2022-10-23T04:31:01.433Z,100.00
2022-10-23T04:33:12.347Z,100.00
2022-10-23T04:35:20.307Z,100.00
2022-10-23T04:37:28.533Z,100.00
2022-10-23T04:39:37.068Z,100.00
2022-10-23T04:41:44.864Z,100.00
2022-10-23T04:43:53.152Z,100.00
2022-10-23T04:46:01.461Z,100.00
2022-10-23T04:48:12.143Z,100.00
2022-10-23T04:50:40.138Z,100.00
2022-10-23T04:53:12.569Z,100.00
2022-10-23T04:55:53.560Z,100.00
2022-10-23T04:58:32.688Z,100.00
2022-10-23T05:00:40.564Z,100.00
2022-10-23T05:02:50.412Z,100.00
2022-10-23T05:05:01.353Z,100.00
2022-10-23T05:07:15.128Z,100.00
2022-10-23T05:09:39.984Z,100.00
2022-10-23T05:12:10.649Z,100.00
2022-10-23T05:14:21.996Z,100.00
2022-10-23T05:16:39.211Z,100.00
2022-10-23T05:18:49.623Z,100.00
2022-10-23T05:21:05.295Z,100.00
2022-10-23T05:23:16.803Z,100.00
2022-10-23T05:25:33.666Z,100.00
2022-10-23T05:27:51.498Z,100.00
2022-10-23T05:29:59.613Z,100.00
2022-10-23T05:32:13.608Z,100.00
2022-10-23T05:34:26.917Z,100.00
2022-10-23T05:36:37.656Z,100.00
2022-10-23T05:38:45.841Z,100.00
2022-10-23T05:41:01.066Z,100.00
2022-10-23T05:43:10.748Z,100.00
2022-10-23T05:45:30.193Z,100.00
2022-10-23T05:48:11.110Z,100.00
2022-10-23T05:50:47.526Z,100.00
2022-10-23T05:53:05.931Z,100.00
2022-10-23T05:55:31.746Z,100.00
2022-10-23T05:57:57.671Z,100.00
2022-10-23T06:00:25.677Z,100.00
2022-10-23T06:02:51.195Z,100.00
2022-10-23T06:05:12.580Z,100.00
2022-10-23T06:07:39.226Z,100.00
2022-10-23T06:09:51.632Z,100.00
2022-10-23T06:12:00.797Z,100.00
2022-10-23T06:14:09.857Z,100.00
2022-10-23T06:16:20.701Z,100.00
2022-10-23T06:18:29.167Z,100.00
2022-10-23T06:20:43.219Z,100.00
2022-10-23T06:22:57.497Z,100.00
2022-10-23T06:25:27.553Z,100.00
2022-10-23T06:27:37.769Z,100.00
2022-10-23T06:29:47.209Z,100.00
2022-10-23T06:31:55.297Z,100.00
2022-10-23T06:34:04.528Z,100.00
2022-10-23T06:36:13.045Z,100.00
2022-10-23T06:38:23.267Z,100.00
2022-10-23T06:40:38.924Z,100.00
2022-10-23T06:42:48.332Z,100.00
2022-10-23T06:45:20.661Z,100.00
2022-10-23T06:47:28.402Z,100.00
2022-10-23T06:49:54.830Z,100.00
2022-10-23T06:52:03.510Z,100.00
2022-10-23T06:54:11.554Z,100.00
2022-10-23T06:56:35.214Z,100.00
2022-10-23T06:58:46.628Z,100.00
2022-10-23T07:00:56.912Z,100.00
2022-10-23T07:03:05.341Z,100.00
2022-10-23T07:05:15.112Z,100.00
2022-10-23T07:07:24.246Z,100.00
2022-10-23T07:09:33.609Z,100.00
2022-10-23T07:12:04.727Z,100.00
2022-10-23T07:14:21.948Z,100.00
2022-10-23T07:16:31.067Z,100.00
2022-10-23T07:18:39.568Z,100.00
2022-10-23T07:21:10.627Z,100.00
2022-10-23T07:23:20.673Z,100.00
2022-10-23T07:25:29.657Z,100.00
2022-10-23T07:27:44.773Z,100.00
2022-10-23T07:29:53.163Z,100.00
2022-10-23T07:32:01.110Z,100.00
2022-10-23T07:34:32.113Z,100.00
2022-10-23T07:37:03.472Z,100.00
2022-10-23T07:39:12.263Z,100.00
2022-10-23T07:41:27.560Z,100.00
2022-10-23T07:43:38.327Z,100.00
2022-10-23T07:45:49.495Z,100.00
2022-10-23T07:48:14.343Z,100.00
2022-10-23T07:50:40.749Z,100.00
2022-10-23T07:52:49.002Z,100.00
2022-10-23T07:54:58.154Z,100.00
2022-10-23T07:57:09.363Z,100.00
2022-10-23T07:59:26.319Z,100.00
2022-10-23T08:01:37.066Z,100.00
2022-10-23T08:03:45.252Z,100.00
2022-10-23T08:05:53.215Z,100.00
2022-10-23T08:08:01.301Z,100.00
2022-10-23T08:10:10.807Z,100.00
2022-10-23T08:12:21.401Z,100.00
2022-10-23T08:14:31.821Z,100.00
2022-10-23T08:16:41.665Z,100.00
2022-10-23T08:19:18.240Z,100.00
2022-10-23T08:21:27.903Z,100.00
2022-10-23T08:23:36.153Z,100.00
2022-10-23T08:25:44.455Z,100.00
2022-10-23T08:27:54.888Z,100.00
2022-10-23T08:30:06.438Z,100.00
2022-10-23T08:32:14.507Z,100.00
2022-10-23T08:34:34.146Z,100.00
2022-10-23T08:36:44.538Z,100.00
2022-10-23T08:38:53.730Z,99.26
2022-10-23T08:41:03.125Z,98.46
2022-10-23T08:43:38.991Z,97.11
2022-10-23T08:46:09.694Z,96.17
2022-10-23T08:49:02.471Z,95.12
2022-10-23T08:51:32.077Z,93.36
2022-10-23T08:53:47.801Z,92.63
2022-10-23T08:56:02.648Z,90.41
2022-10-23T08:58:16.800Z,88.86
2022-10-23T09:00:24.747Z,89.85
2022-10-23T09:02:40.209Z,88.02
2022-10-23T09:04:51.153Z,86.13
2022-10-23T09:09:58.641Z,78.66
2022-10-23T09:12:16.826Z,72.04
2022-10-23T09:14:41.152Z,61.92
2022-10-23T09:17:00.985Z,55.20
2022-10-23T09:19:19.753Z,57.64
2022-10-23T09:21:30.278Z,54.15
2022-10-23T09:23:38.352Z,52.40
2022-10-23T09:25:47.685Z,50.31
2022-10-23T09:28:01.373Z,48.61
2022-10-23T09:30:13.236Z,51.84
2022-10-23T09:32:21.831Z,51.81
2022-10-23T09:34:34.270Z,47.79
2022-10-23T09:36:52.839Z,45.91
2022-10-23T09:39:02.745Z,48.31
2022-10-23T09:41:17.076Z,48.03
2022-10-23T09:43:27.635Z,47.28
2022-10-23T09:45:42.696Z,43.66
2022-10-23T09:47:54.998Z,45.13
2022-10-23T09:50:05.826Z,45.07
2022-10-23T09:52:27.043Z,47.12
2022-10-23T09:54:38.205Z,46.41
2022-10-23T09:56:51.504Z,44.43
2022-10-23T09:59:02.780Z,44.46
2022-10-23T10:01:26.310Z,44.30
2022-10-23T10:03:40.387Z,45.66
2022-10-23T10:06:01.210Z,41.27
2022-10-23T10:08:20.037Z,40.07
2022-10-23T10:10:30.259Z,41.70
2022-10-23T10:12:49.952Z,44.21
2022-10-23T10:15:09.635Z,44.57
2022-10-23T10:17:26.433Z,43.58
2022-10-23T10:19:48.651Z,44.86
2022-10-23T10:22:04.882Z,46.95
2022-10-23T10:24:20.249Z,49.98
2022-10-23T10:26:38.074Z,49.98
2022-10-23T10:28:57.338Z,51.89
2022-10-23T10:31:18.425Z,53.53
2022-10-23T10:33:38.605Z,53.74
2022-10-23T10:35:55.642Z,50.08
2022-10-23T10:38:22.989Z,48.21
2022-10-23T10:40:34.479Z,49.28
2022-10-23T10:43:04.267Z,53.45
2022-10-23T10:45:32.649Z,56.12
2022-10-23T10:47:50.692Z,57.99
2022-10-23T10:50:15.199Z,58.15
2022-10-23T10:52:50.645Z,58.20
2022-10-23T10:55:12.374Z,59.95
2022-10-23T10:57:32.677Z,60.61
2022-10-23T10:59:43.089Z,60.46
2022-10-23T11:01:59.833Z,59.50
2022-10-23T11:04:14.445Z,60.71
2022-10-23T11:06:26.441Z,60.30
2022-10-23T11:08:49.983Z,60.80
2022-10-23T11:11:15.753Z,58.59
2022-10-23T11:13:29.850Z,59.92
2022-10-23T11:15:43.834Z,58.91
2022-10-23T11:17:56.678Z,60.67
2022-10-23T11:20:09.613Z,62.59
2022-10-23T11:22:26.381Z,64.68
2022-10-23T11:24:58.370Z,61.88
2022-10-23T11:27:29.158Z,64.57
2022-10-23T11:30:03.580Z,63.00
2022-10-23T11:32:28.911Z,67.02
2022-10-23T11:35:08.432Z,68.93
2022-10-23T11:37:21.296Z,68.40
2022-10-23T11:39:30.982Z,70.49
2022-10-23T11:41:51.961Z,71.19
2022-10-23T11:44:05.790Z,71.90
2022-10-23T11:46:18.155Z,71.79
2022-10-23T11:48:38.983Z,69.00
2022-10-23T11:50:59.039Z,69.39
2022-10-23T11:53:26.254Z,67.77
2022-10-23T11:55:36.011Z,65.90
2022-10-23T11:57:43.921Z,65.49
2022-10-23T11:59:59.842Z,66.08
2022-10-23T12:02:25.811Z,65.64
2022-10-23T12:04:41.725Z,67.37
2022-10-23T12:06:52.677Z,65.81
2022-10-23T12:09:07.610Z,65.05
2022-10-23T12:11:31.691Z,65.10
2022-10-23T12:13:49.594Z,60.39
2022-10-23T12:16:01.115Z,60.45
2022-10-23T12:18:17.975Z,59.71
2022-10-23T12:20:34.612Z,60.24
2022-10-23T12:22:50.533Z,61.76
2022-10-23T12:25:06.378Z,61.26
2022-10-23T12:27:23.323Z,60.77
2022-10-23T12:29:53.760Z,60.44
2022-10-23T12:32:18.791Z,61.30
2022-10-23T12:34:38.399Z,61.51
2022-10-23T12:37:03.093Z,62.82
2022-10-23T12:39:29.206Z,61.05
2022-10-23T12:41:41.112Z,59.45
2022-10-23T12:43:56.281Z,60.02
2022-10-23T12:46:08.545Z,60.72
2022-10-23T12:48:25.999Z,60.84
2022-10-23T12:50:35.816Z,63.63
2022-10-23T12:52:54.045Z,57.81
2022-10-23T12:55:01.950Z,58.86
2022-10-23T12:57:23.098Z,58.64
2022-10-23T12:59:41.918Z,56.00
2022-10-23T13:01:52.745Z,58.15
2022-10-23T13:04:11.090Z,59.67
2022-10-23T13:06:19.691Z,55.84
2022-10-23T13:08:35.119Z,54.65
2022-10-23T13:11:23.002Z,55.58
2022-10-23T13:13:33.120Z,56.63
2022-10-23T13:15:43.815Z,59.89
2022-10-23T13:18:05.234Z,60.63
2022-10-23T13:20:24.188Z,59.11
2022-10-23T13:22:31.961Z,60.24
2022-10-23T13:24:40.064Z,60.00
2022-10-23T13:26:49.104Z,60.66
2022-10-23T13:28:57.702Z,64.91
2022-10-23T13:31:10.271Z,65.65
2022-10-23T13:33:25.209Z,64.95
2022-10-23T13:35:37.445Z,64.58
2022-10-23T13:37:45.299Z,67.11
2022-10-23T13:40:03.076Z,67.57
2022-10-23T13:42:16.451Z,67.76
2022-10-23T13:44:26.777Z,68.04
2022-10-23T13:46:35.184Z,67.28
2022-10-23T13:48:43.108Z,66.29
2022-10-23T13:50:53.658Z,66.95
2022-10-23T13:53:01.859Z,65.07
2022-10-23T13:55:20.407Z,64.73
2022-10-23T13:57:29.044Z,65.53
2022-10-23T13:59:36.778Z,66.69
2022-10-23T14:01:46.391Z,66.24
2022-10-23T14:03:55.625Z,65.18
2022-10-23T14:06:06.381Z,66.42
2022-10-23T14:08:14.867Z,64.13
2022-10-23T14:10:25.653Z,62.77
2022-10-23T14:12:42.448Z,63.59
2022-10-23T14:14:54.137Z,64.13
2022-10-23T14:17:02.456Z,63.60
2022-10-23T14:19:10.928Z,64.11
2022-10-23T14:21:24.601Z,64.92
2022-10-23T14:23:32.469Z,68.30
2022-10-23T14:25:40.209Z,63.45
2022-10-23T14:27:48.288Z,63.98
2022-10-23T14:29:56.383Z,64.13
2022-10-23T14:32:04.260Z,64.73
2022-10-23T14:34:12.206Z,67.40
2022-10-23T14:36:22.782Z,68.69
2022-10-23T14:38:31.665Z,70.04
2022-10-23T14:40:41.320Z,69.49
2022-10-23T14:42:49.606Z,71.45
2022-10-23T14:44:57.399Z,72.66
2022-10-23T14:47:05.219Z,71.74
2022-10-23T14:49:13.187Z,70.23
2022-10-23T14:51:25.687Z,71.41
2022-10-23T14:53:34.021Z,68.49
2022-10-23T14:55:42.429Z,70.15
2022-10-23T14:57:50.160Z,71.71
2022-10-23T14:59:57.926Z,72.49
2022-10-23T15:02:06.023Z,73.13
2022-10-23T15:04:15.035Z,72.14
2022-10-23T15:06:26.663Z,70.26
2022-10-23T15:08:36.153Z,70.10
2022-10-23T15:10:44.173Z,72.41
2022-10-23T15:12:51.970Z,72.28
2022-10-23T15:14:59.678Z,72.38
2022-10-23T15:17:09.783Z,72.12
2022-10-23T15:19:20.800Z,70.12
2022-10-23T15:21:31.196Z,70.71
2022-10-23T15:23:42.583Z,72.00
2022-10-23T15:25:58.324Z,73.94
2022-10-23T15:28:06.562Z,73.06
2022-10-23T15:30:17.449Z,73.40
2022-10-23T15:32:25.178Z,78.22
2022-10-23T15:34:33.395Z,78.22
2022-10-23T15:36:44.941Z,77.02
2022-10-23T15:38:53.696Z,77.72
2022-10-23T15:41:16.336Z,77.61
2022-10-23T15:43:24.450Z,77.85
2022-10-23T15:45:32.309Z,78.85
2022-10-23T15:47:40.454Z,78.70
2022-10-23T15:49:48.337Z,78.58
2022-10-23T15:51:59.741Z,79.64
2022-10-23T15:54:09.294Z,79.89
2022-10-23T15:56:17.398Z,80.43
2022-10-23T15:58:25.263Z,80.02
2022-10-23T16:00:36.093Z,80.51
2022-10-23T16:02:46.510Z,81.18
2022-10-23T16:04:54.773Z,80.77
2022-10-23T16:07:05.218Z,80.19
2022-10-23T16:09:13.320Z,80.11
2022-10-23T16:11:24.802Z,80.67
2022-10-23T16:13:32.777Z,81.02
2022-10-23T16:15:41.410Z,82.08
2022-10-23T16:17:49.412Z,83.35
2022-10-23T16:19:57.342Z,84.82
2022-10-23T16:22:07.873Z,85.67
2022-10-23T16:24:15.836Z,84.94
2022-10-23T16:26:25.887Z,85.79
2022-10-23T16:28:34.676Z,85.44
2022-10-23T16:30:44.281Z,84.46
2022-10-23T16:32:52.926Z,83.75
2022-10-23T16:35:01.173Z,83.43
2022-10-23T16:37:19.462Z,83.77
2022-10-23T16:39:32.182Z,83.43
2022-10-23T16:41:59.433Z,82.66
2022-10-23T16:44:16.421Z,83.26
2022-10-23T16:46:36.830Z,83.94
2022-10-23T16:48:45.299Z,85.57
2022-10-23T16:50:53.700Z,87.38
2022-10-23T16:53:04.496Z,88.22
2022-10-23T16:55:13.061Z,87.11
2022-10-23T16:57:21.086Z,86.31
2022-10-23T16:59:28.985Z,85.97
2022-10-23T17:01:37.171Z,86.54
2022-10-23T17:03:48.400Z,84.97
2022-10-23T17:05:59.623Z,85.37
2022-10-23T17:08:11.872Z,84.55
2022-10-23T17:10:19.664Z,85.01
2022-10-23T17:12:27.532Z,84.33
2022-10-23T17:14:35.676Z,85.08
2022-10-23T17:16:47.988Z,84.40
2022-10-23T17:18:56.076Z,83.42
2022-10-23T17:21:04.398Z,84.45
2022-10-23T17:23:15.674Z,82.79
2022-10-23T17:25:23.936Z,82.42
2022-10-23T17:27:31.977Z,84.91
2022-10-23T17:29:39.867Z,84.65
2022-10-23T17:31:51.456Z,81.63
2022-10-23T17:34:02.453Z,81.70
2022-10-23T17:36:11.661Z,82.83
2022-10-23T17:38:22.207Z,82.59
2022-10-23T17:40:33.102Z,83.68
2022-10-23T17:42:41.284Z,84.83
2022-10-23T17:44:52.088Z,86.12
2022-10-23T17:46:59.906Z,87.09
2022-10-23T17:49:09.271Z,87.74
2022-10-23T17:51:20.066Z,86.15
2022-10-23T17:53:31.012Z,84.86
2022-10-23T17:55:42.409Z,87.27
2022-10-23T17:57:50.597Z,88.26
2022-10-23T17:59:58.705Z,87.92
2022-10-23T18:02:07.446Z,86.94
2022-10-23T18:04:15.594Z,85.64
2022-10-23T18:06:28.816Z,84.62
2022-10-23T18:08:40.547Z,86.84
2022-10-23T18:10:48.436Z,86.62
2022-10-23T18:12:57.057Z,84.21
2022-10-23T18:15:05.277Z,83.94
2022-10-23T18:17:13.594Z,80.64
2022-10-23T18:19:21.963Z,78.62
2022-10-23T18:21:30.894Z,79.11
2022-10-23T18:23:41.459Z,80.70
2022-10-23T18:25:49.965Z,80.98
2022-10-23T18:28:01.776Z,80.96
2022-10-23T18:30:12.724Z,81.66
2022-10-23T18:32:20.830Z,82.03
2022-10-23T18:34:29.606Z,81.54
2022-10-23T18:36:40.026Z,80.75
2022-10-23T18:38:51.428Z,81.16
2022-10-23T18:41:02.499Z,83.35
2022-10-23T18:43:15.261Z,83.65
2022-10-23T18:45:28.706Z,84.04
2022-10-23T18:47:36.783Z,85.86
2022-10-23T18:49:45.245Z,86.65
2022-10-23T18:51:53.937Z,86.26
2022-10-23T18:54:07.848Z,85.96
2022-10-23T18:56:16.734Z,85.05
2022-10-23T18:58:25.202Z,81.91
2022-10-23T19:00:33.637Z,80.97
2022-10-23T19:02:42.885Z,80.25
2022-10-23T19:04:50.987Z,80.57
2022-10-23T19:06:59.197Z,80.17
2022-10-23T19:09:13.862Z,79.70
2022-10-23T19:11:24.104Z,80.70
2022-10-23T19:13:39.001Z,81.20
2022-10-23T19:15:47.883Z,81.58
2022-10-23T19:17:57.282Z,82.74
2022-10-23T19:20:12.452Z,83.93
2022-10-23T19:22:21.123Z,86.73
2022-10-23T19:24:40.046Z,85.36
2022-10-23T19:26:47.943Z,84.73
2022-10-23T19:28:56.240Z,83.87
2022-10-23T19:31:04.439Z,83.75
2022-10-23T19:33:12.757Z,84.12
2022-10-23T19:35:23.217Z,83.10
2022-10-23T19:37:31.371Z,81.44
2022-10-23T19:39:42.606Z,83.55
2022-10-23T19:41:51.779Z,84.57
2022-10-23T19:44:00.055Z,85.05
2022-10-23T19:46:12.006Z,84.91
2022-10-23T19:48:20.933Z,84.76
2022-10-23T19:50:29.131Z,85.19
2022-10-23T19:52:37.737Z,85.41
2022-10-23T19:54:49.225Z,83.46
2022-10-23T19:56:57.860Z,82.97
2022-10-23T19:59:06.356Z,82.04
2022-10-23T20:01:16.869Z,81.43
2022-10-23T20:03:25.287Z,79.03
2022-10-23T20:05:33.721Z,77.72
2022-10-23T20:07:42.964Z,76.86
2022-10-23T20:09:53.794Z,76.62
2022-10-23T20:12:01.991Z,75.51
2022-10-23T20:14:11.269Z,74.64
2022-10-23T20:16:20.997Z,76.45
2022-10-23T20:18:29.505Z,74.59
2022-10-23T20:20:42.596Z,71.89
2022-10-23T20:22:54.623Z,71.16
2022-10-23T20:25:06.780Z,70.97
2022-10-23T20:27:15.659Z,70.34
2022-10-23T20:29:24.924Z,69.12
2022-10-23T20:31:33.178Z,68.42
2022-10-23T20:33:43.196Z,68.89
2022-10-23T20:35:52.934Z,67.28
2022-10-23T20:38:01.416Z,68.09
2022-10-23T20:40:13.239Z,67.60
2022-10-23T20:42:21.766Z,67.09
2022-10-23T20:44:30.177Z,66.99
2022-10-23T20:46:38.535Z,66.90
2022-10-23T20:48:47.756Z,66.61
2022-10-23T20:50:56.142Z,67.39
2022-10-23T20:53:04.408Z,66.25
2022-10-23T20:55:15.419Z,65.74
2022-10-23T20:57:23.588Z,66.31
2022-10-23T20:59:31.987Z,66.46
2022-10-23T21:01:42.970Z,67.10
2022-10-23T21:03:53.937Z,66.86
2022-10-23T21:06:07.172Z,67.45
2022-10-23T21:08:15.213Z,67.01
2022-10-23T21:10:26.476Z,67.03
2022-10-23T21:12:49.455Z,66.29
2022-10-23T21:14:57.730Z,67.42
2022-10-23T21:17:06.168Z,66.80
2022-10-23T21:19:16.446Z,66.45
2022-10-23T21:21:25.953Z,66.02
2022-10-23T21:23:33.900Z,65.58
2022-10-23T21:25:45.005Z,63.59
2022-10-23T21:27:52.988Z,62.80
2022-10-23T21:30:00.910Z,64.04
2022-10-23T21:32:09.405Z,63.15
2022-10-23T21:34:17.426Z,62.36
2022-10-23T21:36:29.261Z,61.84
2022-10-23T21:38:39.254Z,62.79
2022-10-23T21:40:50.130Z,61.25
2022-10-23T21:42:58.227Z,61.72
2022-10-23T21:45:07.428Z,61.50
2022-10-23T21:47:15.866Z,61.62
2022-10-23T21:49:24.075Z,61.50
2022-10-23T21:51:35.419Z,61.73
2022-10-23T21:53:43.193Z,61.33
2022-10-23T21:55:54.695Z,61.58
2022-10-23T21:58:02.422Z,62.32
2022-10-23T22:00:12.002Z,62.08
2022-10-23T22:02:21.162Z,61.07
2022-10-23T22:04:29.759Z,61.52
2022-10-23T22:06:37.827Z,61.21
2022-10-23T22:08:47.267Z,61.58
2022-10-23T22:10:58.576Z,62.36
2022-10-23T22:13:06.828Z,61.97
2022-10-23T22:15:14.826Z,61.68
2022-10-23T22:17:23.085Z,62.72
2022-10-23T22:19:31.403Z,62.88
2022-10-23T22:21:40.594Z,62.58
2022-10-23T22:23:50.174Z,61.87
2022-10-23T22:26:01.365Z,63.13
2022-10-23T22:28:09.463Z,63.20
2022-10-23T22:30:18.622Z,62.15
2022-10-23T22:32:27.033Z,62.36
2022-10-23T22:34:52.303Z,62.94
2022-10-23T22:37:00.796Z,63.14
2022-10-23T22:39:10.411Z,62.77
2022-10-23T22:41:21.574Z,62.21
2022-10-23T22:43:29.558Z,63.10
2022-10-23T22:45:37.677Z,62.44
2022-10-23T22:47:45.923Z,63.36
2022-10-23T22:49:54.895Z,62.67
2022-10-23T22:52:03.169Z,63.86
2022-10-23T22:54:11.356Z,63.82
2022-10-23T22:56:24.755Z,64.25
2022-10-23T22:58:32.794Z,63.57
2022-10-23T23:00:43.612Z,63.85
2022-10-23T23:02:52.207Z,64.92
2022-10-23T23:05:00.720Z,64.60
2022-10-23T23:07:09.591Z,65.67
2022-10-23T23:09:19.203Z,65.10
2022-10-23T23:11:40.772Z,66.05
2022-10-23T23:13:59.904Z,65.41
2022-10-23T23:16:09.421Z,66.38
2022-10-23T23:18:17.706Z,66.36
2022-10-23T23:20:25.791Z,66.27
2022-10-23T23:22:34.081Z,66.28
2022-10-23T23:24:42.064Z,65.78
2022-10-23T23:26:52.610Z,65.62
2022-10-23T23:29:00.577Z,67.08
2022-10-23T23:31:11.392Z,67.62
2022-10-23T23:33:24.052Z,68.83
2022-10-23T23:35:32.702Z,67.90
2022-10-23T23:37:41.151Z,68.05
2022-10-23T23:39:50.686Z,67.55
2022-10-23T23:42:01.460Z,67.08
2022-10-23T23:44:09.417Z,68.04
2022-10-23T23:46:17.955Z,68.20
2022-10-23T23:48:26.510Z,68.31
2022-10-23T23:50:34.709Z,68.05
2022-10-23T23:52:42.792Z,68.74
2022-10-23T23:54:50.986Z,69.95
2022-10-23T23:57:05.834Z,69.62
2022-10-23T23:59:13.775Z,70.39
